Time;durP1;ratioP1;P1;durP2;ratioP2;P2;SDS_P1;SDS_P2;PMS_P1;PMS_P2;Temp;Humidity;BMP_temperature;BMP_pressure;BME280_temperature;BME280_humidity;BME280_pressure;Samples;Min_cycle;Max_cycle;Signal;HPM_P1;HPM_P2
2023/07/31 00:02:17;;;;;;;5.55;3.75;;;16.30;99.90;;;;;;5008909;28;20053;-70
2023/07/31 00:04:43;;;;;;;6.43;3.58;;;16.30;99.90;;;;;;4992061;28;20050;-69
2023/07/31 00:07:08;;;;;;;5.05;3.58;;;16.30;99.90;;;;;;4991771;28;20061;-69
2023/07/31 00:09:34;;;;;;;4.82;2.90;;;16.30;99.90;;;;;;5009281;28;20046;-69
2023/07/31 00:12:00;;;;;;;4.13;2.70;;;16.20;99.90;;;;;;5009550;28;20408;-69
2023/07/31 00:14:25;;;;;;;5.65;3.03;;;16.20;99.90;;;;;;5009137;28;21551;-69
2023/07/31 00:16:51;;;;;;;3.92;2.60;;;16.20;99.90;;;;;;5009257;28;20038;-68
2023/07/31 00:19:17;;;;;;;5.00;2.50;;;16.20;99.90;;;;;;5008888;28;20461;-68
2023/07/31 00:21:43;;;;;;;4.07;2.30;;;16.10;99.90;;;;;;4991496;28;20062;-68
2023/07/31 00:24:09;;;;;;;4.38;2.70;;;16.10;99.90;;;;;;5009409;28;20042;-69
2023/07/31 00:26:34;;;;;;;3.90;2.60;;;16.00;99.90;;;;;;5009497;28;20046;-68
2023/07/31 00:29:00;;;;;;;5.70;3.22;;;16.00;99.90;;;;;;5009182;28;20038;-69
2023/07/31 00:31:25;;;;;;;4.53;3.00;;;16.00;99.90;;;;;;4991700;28;20056;-69
2023/07/31 00:33:51;;;;;;;5.25;3.15;;;16.00;99.90;;;;;;5008880;28;20037;-69
2023/07/31 00:36:17;;;;;;;4.70;3.13;;;16.00;99.90;;;;;;5009455;28;20045;-69
2023/07/31 00:38:44;;;;;;;6.25;3.42;;;16.00;99.90;;;;;;5009438;28;20038;-69
2023/07/31 00:41:09;;;;;;;4.65;3.53;;;16.00;99.90;;;;;;5008966;28;20065;-69
2023/07/31 00:43:35;;;;;;;6.18;3.60;;;15.90;99.90;;;;;;5008954;28;20046;-69
2023/07/31 00:46:01;;;;;;;5.97;3.22;;;15.90;99.90;;;;;;5003982;28;20045;-69
2023/07/31 00:48:26;;;;;;;6.97;2.90;;;15.90;99.90;;;;;;4997998;28;20030;-69
2023/07/31 00:50:52;;;;;;;4.20;3.20;;;15.90;99.90;;;;;;4984292;28;20050;-69
2023/07/31 00:53:18;;;;;;;3.28;2.45;;;15.90;99.90;;;;;;5002355;28;20073;-68
2023/07/31 00:55:44;;;;;;;6.50;2.90;;;15.80;99.90;;;;;;5005039;28;20060;-69
2023/07/31 00:58:10;;;;;;;5.10;3.00;;;15.80;99.90;;;;;;4988540;28;20065;-68
2023/07/31 01:00:35;;;;;;;3.90;2.78;;;15.80;99.90;;;;;;5004256;28;20042;-69
2023/07/31 01:03:01;;;;;;;4.53;3.00;;;15.80;99.90;;;;;;5009937;28;20034;-68
2023/07/31 01:06:02;;;;;;;4.63;3.20;;;15.90;99.90;;;;;;4987384;28;20046;-68
2023/07/31 01:08:37;;;;;;;5.07;2.90;;;15.70;99.90;;;;;;5003059;28;20050;-69
2023/07/31 01:11:15;;;;;;;;;;;15.80;99.90;;;;;;5006128;28;20050;-69
2023/07/31 01:13:42;;;;;;;5.53;2.95;;;15.70;99.90;;;;;;5006143;28;19928;-69
2023/07/31 01:16:07;;;;;;;5.82;2.88;;;15.80;99.90;;;;;;5000337;28;20042;-70
2023/07/31 01:18:33;;;;;;;3.50;2.65;;;15.70;99.90;;;;;;4983706;28;20053;-70
2023/07/31 01:21:19;;;;;;;5.25;3.55;;;15.70;99.90;;;;;;5008963;28;20046;-70
2023/07/31 01:24:15;;;;;;;6.82;3.40;;;15.70;99.90;;;;;;4995947;28;20042;-70
2023/07/31 01:26:47;;;;;;;4.80;2.97;;;15.70;99.90;;;;;;4995088;28;20497;-69
2023/07/31 01:29:17;;;;;;;5.97;2.65;;;15.70;99.90;;;;;;4997518;28;20048;-69
2023/07/31 01:31:46;;;;;;;5.05;2.60;;;15.70;99.90;;;;;;5004856;28;20034;-69
2023/07/31 01:34:13;;;;;;;4.18;2.58;;;15.70;99.90;;;;;;4998036;28;20092;-69
2023/07/31 01:36:39;;;;;;;4.05;2.33;;;15.70;99.90;;;;;;5005619;28;20120;-69
2023/07/31 01:39:05;;;;;;;3.15;2.20;;;15.70;99.90;;;;;;5010229;28;20144;-68
2023/07/31 01:41:30;;;;;;;3.05;1.83;;;15.70;99.90;;;;;;5002589;28;20042;-67
2023/07/31 01:43:56;;;;;;;4.13;1.80;;;15.70;99.90;;;;;;5005099;28;20396;-68
2023/07/31 01:46:22;;;;;;;4.03;1.98;;;15.70;99.90;;;;;;5010870;28;20397;-68
2023/07/31 01:48:47;;;;;;;2.35;1.48;;;15.70;99.90;;;;;;5010210;28;20045;-69
2023/07/31 01:51:13;;;;;;;3.22;1.73;;;15.60;99.90;;;;;;5008307;28;20050;-69
2023/07/31 01:53:39;;;;;;;2.30;1.48;;;15.70;99.90;;;;;;5009061;28;20719;-68
2023/07/31 01:56:04;;;;;;;2.17;1.35;;;15.70;99.90;;;;;;5006899;28;20081;-69
2023/07/31 01:58:30;;;;;;;4.25;1.25;;;15.70;99.90;;;;;;4989908;28;20931;-69
2023/07/31 02:00:56;;;;;;;2.50;1.40;;;15.70;99.90;;;;;;5010756;28;20072;-68
2023/07/31 02:03:21;;;;;;;2.75;1.27;;;15.70;99.90;;;;;;5002263;28;20044;-68
2023/07/31 02:05:48;;;;;;;2.38;1.38;;;15.60;99.90;;;;;;4993490;28;20157;-69
2023/07/31 02:08:14;;;;;;;2.30;1.48;;;15.60;99.90;;;;;;5006428;28;20567;-69
2023/07/31 02:10:40;;;;;;;1.98;1.27;;;15.70;99.90;;;;;;4987955;28;20042;-69
2023/07/31 02:13:06;;;;;;;3.20;1.38;;;15.60;99.90;;;;;;5000090;28;20104;-69
2023/07/31 02:15:32;;;;;;;3.95;1.55;;;15.60;99.90;;;;;;5007154;28;20042;-69
2023/07/31 02:17:57;;;;;;;3.10;1.40;;;15.70;99.90;;;;;;4999287;28;20443;-69
2023/07/31 02:20:23;;;;;;;2.35;1.20;;;15.70;99.90;;;;;;4999312;28;20494;-68
2023/07/31 02:22:49;;;;;;;1.40;1.10;;;15.70;99.90;;;;;;5006365;28;20508;-69
2023/07/31 02:25:14;;;;;;;2.92;1.30;;;15.60;99.90;;;;;;4987696;28;20050;-69
2023/07/31 02:27:40;;;;;;;3.42;1.42;;;15.70;99.90;;;;;;5006376;28;20400;-69
2023/07/31 02:30:06;;;;;;;2.70;1.08;;;15.60;99.90;;;;;;5007301;28;20045;-69
2023/07/31 02:32:32;;;;;;;1.98;0.95;;;15.60;99.90;;;;;;4996269;28;20543;-70
2023/07/31 02:34:58;;;;;;;2.20;1.10;;;15.70;99.90;;;;;;5010101;28;20224;-68
2023/07/31 02:37:25;;;;;;;1.67;0.90;;;15.70;99.90;;;;;;5006862;28;20113;-69
2023/07/31 02:39:51;;;;;;;1.65;0.88;;;15.70;99.90;;;;;;4987152;28;20050;-69
2023/07/31 02:42:17;;;;;;;3.60;1.17;;;15.70;99.90;;;;;;5004595;28;20069;-69
2023/07/31 02:44:42;;;;;;;1.35;0.93;;;15.70;99.90;;;;;;5005547;28;20033;-68
2023/07/31 02:47:08;;;;;;;1.65;1.00;;;15.60;99.90;;;;;;5003277;28;20508;-68
2023/07/31 02:49:34;;;;;;;3.42;1.00;;;15.60;99.90;;;;;;4987835;28;20093;-68
2023/07/31 02:51:59;;;;;;;2.03;1.10;;;15.60;99.90;;;;;;5005709;28;20041;-68
2023/07/31 02:54:25;;;;;;;2.28;1.13;;;15.60;99.90;;;;;;5005013;28;20045;-70
2023/07/31 02:56:50;;;;;;;1.52;0.73;;;15.70;99.90;;;;;;5005875;28;20572;-69
2023/07/31 02:59:17;;;;;;;1.90;0.75;;;15.70;99.90;;;;;;4987487;28;20057;-67
2023/07/31 03:01:42;;;;;;;1.25;0.68;;;15.70;99.90;;;;;;5007921;28;20054;-69
2023/07/31 03:04:08;;;;;;;2.88;1.15;;;15.60;99.90;;;;;;5001443;28;20406;-69
2023/07/31 03:06:33;;;;;;;2.60;0.90;;;15.70;99.90;;;;;;5009682;28;20045;-69
2023/07/31 03:08:59;;;;;;;2.47;0.80;;;15.60;99.90;;;;;;4993173;28;20124;-68
2023/07/31 03:11:25;;;;;;;2.83;1.02;;;15.70;99.90;;;;;;5009576;28;20053;-69
2023/07/31 03:13:50;;;;;;;2.15;0.70;;;15.60;99.90;;;;;;5010785;28;20029;-69
2023/07/31 03:16:16;;;;;;;2.10;0.80;;;15.60;99.90;;;;;;5010737;28;20452;-69
2023/07/31 03:18:42;;;;;;;2.35;0.77;;;15.60;99.90;;;;;;4992908;28;20046;-69
2023/07/31 03:21:07;;;;;;;3.08;0.90;;;15.60;99.90;;;;;;5010520;28;20053;-69
2023/07/31 03:23:33;;;;;;;2.45;1.05;;;15.70;99.90;;;;;;5009707;28;20097;-68
2023/07/31 03:26:01;;;;;;;2.20;0.70;;;15.60;99.90;;;;;;5009851;28;20042;-69
2023/07/31 03:28:26;;;;;;;1.90;0.80;;;15.70;99.90;;;;;;5010010;28;20128;-69
2023/07/31 03:30:52;;;;;;;1.80;0.75;;;15.60;99.90;;;;;;5009828;28;20305;-70
2023/07/31 03:33:18;;;;;;;1.45;0.82;;;15.70;99.90;;;;;;4992334;28;20050;-70
2023/07/31 03:35:44;;;;;;;2.25;1.05;;;15.60;99.90;;;;;;4991344;28;20045;-70
2023/07/31 03:38:10;;;;;;;1.20;0.77;;;15.70;99.90;;;;;;5009876;28;20049;-69
2023/07/31 03:40:35;;;;;;;2.60;0.90;;;15.60;99.90;;;;;;5009628;28;20480;-70
2023/07/31 03:43:01;;;;;;;3.40;0.98;;;15.60;99.90;;;;;;5009722;28;20476;-69
2023/07/31 03:45:26;;;;;;;2.85;1.02;;;15.60;99.90;;;;;;5010224;28;20033;-69
2023/07/31 03:47:53;;;;;;;3.05;1.10;;;15.60;99.90;;;;;;5010050;28;20030;-69
2023/07/31 03:50:19;;;;;;;1.83;0.80;;;15.60;99.90;;;;;;5010110;28;20045;-69
2023/07/31 03:52:44;;;;;;;1.55;0.75;;;15.60;99.90;;;;;;5009497;28;20080;-69
2023/07/31 03:55:10;;;;;;;1.95;0.90;;;15.60;99.90;;;;;;5009390;28;20829;-69
2023/07/31 03:57:36;;;;;;;2.65;0.90;;;15.60;99.90;;;;;;5009249;28;20096;-69
2023/07/31 04:00:01;;;;;;;2.85;0.93;;;15.60;99.90;;;;;;4991566;28;20073;-69
2023/07/31 04:02:27;;;;;;;3.00;1.10;;;15.60;99.90;;;;;;5009507;28;20169;-69
2023/07/31 04:04:53;;;;;;;2.60;1.30;;;15.60;99.90;;;;;;5009459;28;20489;-69
2023/07/31 04:07:18;;;;;;;1.75;0.90;;;15.60;99.90;;;;;;4991842;28;20050;-69
2023/07/31 04:09:44;;;;;;;5.60;1.00;;;15.60;99.90;;;;;;5008650;28;20037;-69
2023/07/31 04:12:09;;;;;;;2.42;1.00;;;15.60;99.90;;;;;;5009297;28;20101;-69
2023/07/31 04:14:35;;;;;;;2.83;1.00;;;15.60;99.90;;;;;;5009186;28;20041;-69
2023/07/31 04:17:01;;;;;;;1.63;0.90;;;15.70;99.90;;;;;;5009272;28;20128;-69
2023/07/31 04:19:26;;;;;;;4.50;1.15;;;15.60;99.90;;;;;;4991675;28;20104;-69
2023/07/31 04:21:52;;;;;;;1.98;1.10;;;15.60;99.90;;;;;;5009076;28;20626;-67
2023/07/31 04:24:23;;;;;;;1.85;1.15;;;15.70;99.90;;;;;;5009197;28;20034;-69
2023/07/31 04:26:53;;;;;;;3.10;1.08;;;15.70;99.90;;;;;;5009503;28;20117;-69
2023/07/31 04:29:19;;;;;;;2.50;1.05;;;15.70;99.90;;;;;;5013412;28;20045;-68
2023/07/31 04:31:45;;;;;;;2.20;0.95;;;15.70;99.90;;;;;;5013236;28;20050;-68
2023/07/31 04:34:11;;;;;;;3.72;0.90;;;15.70;99.90;;;;;;5013337;28;20057;-70
2023/07/31 04:36:37;;;;;;;3.17;1.15;;;15.70;99.90;;;;;;5013298;28;20101;-69
2023/07/31 04:39:03;;;;;;;2.53;0.80;;;15.70;99.90;;;;;;5012701;28;20712;-69
2023/07/31 04:41:28;;;;;;;2.42;0.80;;;15.70;99.90;;;;;;5013084;28;20052;-69
2023/07/31 04:43:54;;;;;;;1.83;0.75;;;15.70;99.90;;;;;;5012924;28;20527;-69
2023/07/31 04:46:20;;;;;;;1.73;0.85;;;15.80;99.90;;;;;;5013025;28;20045;-69
2023/07/31 04:48:45;;;;;;;4.40;0.90;;;15.70;99.90;;;;;;4995307;28;20065;-68
2023/07/31 04:51:11;;;;;;;2.10;0.80;;;15.80;99.90;;;;;;5012855;28;20054;-68
2023/07/31 04:53:37;;;;;;;1.15;0.50;;;15.70;99.90;;;;;;5012956;28;20042;-68
2023/07/31 04:56:03;;;;;;;3.53;0.65;;;15.80;99.90;;;;;;5012386;28;20053;-68
2023/07/31 04:58:28;;;;;;;1.25;0.90;;;15.80;99.90;;;;;;5003478;28;20429;-67
2023/07/31 05:00:54;;;;;;;1.55;0.82;;;15.80;99.90;;;;;;5004524;28;20049;-68
2023/07/31 05:03:19;;;;;;;2.15;0.85;;;15.80;99.90;;;;;;4984369;28;20053;-68
2023/07/31 05:05:45;;;;;;;1.45;0.80;;;15.70;99.90;;;;;;4982960;28;20043;-68
2023/07/31 05:08:11;;;;;;;1.15;0.80;;;15.70;99.90;;;;;;5000004;28;20561;-68
2023/07/31 05:10:37;;;;;;;3.45;1.10;;;15.70;99.90;;;;;;4984557;28;20089;-69
2023/07/31 05:13:02;;;;;;;4.10;1.27;;;15.80;99.90;;;;;;4998433;28;20041;-68
2023/07/31 05:15:28;;;;;;;1.88;1.05;;;15.70;99.90;;;;;;5006663;28;20388;-68
2023/07/31 05:17:54;;;;;;;3.63;1.10;;;15.70;99.90;;;;;;5004540;28;20042;-68
2023/07/31 05:20:20;;;;;;;3.90;1.27;;;15.70;99.90;;;;;;4998625;28;20144;-68
2023/07/31 05:22:46;;;;;;;3.30;1.60;;;15.90;99.90;;;;;;4998529;28;20042;-68
2023/07/31 05:25:12;;;;;;;3.55;1.50;;;15.80;99.90;;;;;;4998008;28;20465;-68
2023/07/31 05:27:38;;;;;;;2.45;1.05;;;15.80;99.90;;;;;;4997988;28;20090;-68
2023/07/31 05:30:05;;;;;;;3.63;1.50;;;15.90;99.90;;;;;;4995761;28;20042;-69
2023/07/31 05:32:31;;;;;;;2.78;1.30;;;15.90;99.90;;;;;;4998202;28;20584;-69
2023/07/31 05:34:56;;;;;;;4.13;1.67;;;15.90;99.90;;;;;;4998948;28;20099;-68
2023/07/31 05:37:22;;;;;;;5.45;1.80;;;16.00;99.90;;;;;;4999387;28;20653;-68
2023/07/31 05:39:48;;;;;;;5.18;1.63;;;15.90;99.90;;;;;;4995329;28;20152;-68
2023/07/31 05:42:13;;;;;;;4.07;1.40;;;15.80;99.90;;;;;;4995941;28;20561;-69
2023/07/31 05:44:39;;;;;;;4.28;1.75;;;16.00;99.90;;;;;;4995970;28;20685;-68
2023/07/31 05:47:05;;;;;;;9.10;2.00;;;16.00;99.90;;;;;;4979560;28;20053;-69
2023/07/31 05:49:30;;;;;;;4.90;1.63;;;16.00;99.90;;;;;;4997222;28;20038;-68
2023/07/31 05:51:56;;;;;;;5.35;1.70;;;16.10;99.90;;;;;;4995566;28;20049;-68
2023/07/31 05:54:22;;;;;;;4.80;2.13;;;16.00;99.90;;;;;;4979907;28;20049;-68
2023/07/31 05:56:47;;;;;;;6.18;2.03;;;16.00;99.90;;;;;;4996727;28;20043;-68
2023/07/31 05:59:13;;;;;;;8.75;2.33;;;16.10;99.90;;;;;;5011826;28;20445;-68
2023/07/31 06:01:39;;;;;;;8.02;3.25;;;16.00;99.90;;;;;;5011570;28;20049;-68
2023/07/31 06:04:05;;;;;;;11.18;3.75;;;16.10;99.90;;;;;;4994239;28;20049;-69
2023/07/31 06:06:31;;;;;;;15.15;4.10;;;16.20;99.90;;;;;;5011654;28;20104;-69
2023/07/31 06:08:57;;;;;;;19.40;4.85;;;16.20;99.90;;;;;;5011793;28;20472;-68
2023/07/31 06:11:23;;;;;;;13.02;4.85;;;16.20;99.90;;;;;;5011178;28;20078;-70
2023/07/31 06:13:49;;;;;;;20.83;6.28;;;16.30;99.90;;;;;;5011196;28;20136;-69
2023/07/31 06:16:15;;;;;;;19.15;5.82;;;16.30;99.90;;;;;;5011123;28;20057;-70
2023/07/31 06:18:41;;;;;;;19.23;5.82;;;16.40;99.90;;;;;;5010814;28;20104;-68
2023/07/31 06:21:07;;;;;;;23.35;6.40;;;16.40;99.90;;;;;;5011416;28;20034;-70
2023/07/31 06:23:33;;;;;;;19.83;5.75;;;16.50;99.90;;;;;;5011267;28;20056;-70
2023/07/31 06:25:59;;;;;;;20.40;6.82;;;16.50;99.90;;;;;;5010975;28;20497;-70
2023/07/31 06:28:29;;;;;;;21.42;7.35;;;16.60;99.90;;;;;;5010968;28;20049;-70
2023/07/31 06:30:55;;;;;;;23.17;5.97;;;16.70;99.90;;;;;;5010924;28;20047;-69
2023/07/31 06:33:20;;;;;;;24.02;6.95;;;16.70;99.90;;;;;;5011344;28;20129;-70
2023/07/31 06:35:46;;;;;;;26.58;7.30;;;16.80;99.90;;;;;;5010888;28;20045;-70
2023/07/31 06:38:12;;;;;;;21.08;5.80;;;16.80;99.90;;;;;;5010952;28;20045;-70
2023/07/31 06:40:37;;;;;;;22.58;5.97;;;16.90;99.90;;;;;;5010920;28;20040;-70
2023/07/31 06:43:07;;;;;;;21.33;5.70;;;16.90;99.90;;;;;;5010261;28;20100;-70
2023/07/31 06:45:37;;;;;;;27.17;6.50;;;17.00;99.90;;;;;;5010717;28;20564;-71
2023/07/31 06:48:04;;;;;;;20.05;5.82;;;17.10;99.90;;;;;;5010880;28;20064;-71
2023/07/31 06:50:33;;;;;;;24.33;5.97;;;17.10;99.90;;;;;;4992496;28;20053;-71
2023/07/31 06:52:59;;;;;;;23.58;5.63;;;17.10;99.90;;;;;;5010869;28;20104;-70
2023/07/31 06:55:25;;;;;;;24.55;5.88;;;17.20;99.90;;;;;;5011019;28;20042;-70
2023/07/31 06:57:53;;;;;;;19.45;6.15;;;17.20;99.90;;;;;;4985492;28;20475;-71
2023/07/31 07:00:19;;;;;;;18.90;6.07;;;17.20;99.90;;;;;;4991328;28;20050;-70
2023/07/31 07:02:47;;;;;;;21.98;6.18;;;17.40;99.90;;;;;;4991266;28;20546;-70
2023/07/31 07:05:13;;;;;;;19.95;5.72;;;17.30;99.90;;;;;;4991187;28;20073;-70
2023/07/31 07:07:39;;;;;;;22.13;6.40;;;17.30;99.90;;;;;;4990913;28;20046;-71
2023/07/31 07:10:05;;;;;;;18.95;5.95;;;17.30;99.90;;;;;;4990999;28;20049;-69
2023/07/31 07:12:31;;;;;;;23.50;6.15;;;17.40;99.90;;;;;;4989976;28;20046;-70
2023/07/31 07:14:57;;;;;;;19.52;6.32;;;17.30;99.90;;;;;;4990976;28;20077;-71
2023/07/31 07:17:24;;;;;;;20.98;6.00;;;17.20;99.90;;;;;;4973598;28;20073;-70
2023/07/31 07:19:49;;;;;;;23.83;6.05;;;17.20;99.90;;;;;;4983338;28;20159;-68
2023/07/31 07:22:15;;;;;;;19.00;5.75;;;17.20;99.90;;;;;;4991111;28;20050;-69
2023/07/31 07:24:42;;;;;;;17.02;6.05;;;17.20;99.90;;;;;;4990832;28;20096;-70
2023/07/31 07:27:07;;;;;;;23.33;5.90;;;17.20;99.90;;;;;;4990848;28;20053;-69
2023/07/31 07:29:38;;;;;;;22.15;5.90;;;17.30;99.90;;;;;;4990757;28;20042;-70
2023/07/31 07:32:05;;;;;;;17.95;7.20;;;17.30;99.90;;;;;;4983423;28;20061;-69
2023/07/31 07:34:30;;;;;;;15.40;5.20;;;17.20;99.90;;;;;;4990945;28;20046;-69
2023/07/31 07:36:56;;;;;;;15.98;5.55;;;17.20;99.90;;;;;;4990114;28;20049;-69
2023/07/31 07:39:22;;;;;;;10.07;4.10;;;17.20;99.90;;;;;;4990597;28;20050;-70
2023/07/31 07:41:47;;;;;;;6.90;2.28;;;17.20;99.90;;;;;;4990228;28;20401;-68
2023/07/31 07:44:13;;;;;;;4.32;1.48;;;17.10;99.90;;;;;;4972942;28;20173;-68
2023/07/31 07:46:39;;;;;;;5.25;1.33;;;17.10;99.90;;;;;;4990492;28;20034;-69
2023/07/31 07:49:05;;;;;;;3.45;1.23;;;17.10;99.90;;;;;;4990380;28;20058;-68
2023/07/31 07:51:31;;;;;;;3.42;1.20;;;17.20;99.90;;;;;;4990686;28;20057;-69
2023/07/31 07:53:57;;;;;;;3.20;1.00;;;17.10;99.90;;;;;;4990817;28;20038;-67
2023/07/31 07:56:25;;;;;;;3.40;1.10;;;17.00;99.90;;;;;;4990682;28;20046;-68
2023/07/31 07:58:50;;;;;;;4.38;1.45;;;17.00;99.90;;;;;;5008534;28;20123;-67
2023/07/31 08:01:16;;;;;;;3.13;1.25;;;17.00;99.90;;;;;;5010313;28;20049;-69
2023/07/31 08:03:42;;;;;;;2.42;1.20;;;17.10;99.90;;;;;;5011015;28;20389;-69
2023/07/31 08:06:09;;;;;;;3.00;1.17;;;17.10;99.90;;;;;;5010999;28;20069;-71
2023/07/31 08:08:35;;;;;;;2.72;1.20;;;17.10;99.90;;;;;;4992823;28;20510;-70
2023/07/31 08:11:01;;;;;;;2.22;1.02;;;17.10;99.90;;;;;;4992638;28;20111;-68
2023/07/31 08:13:26;;;;;;;3.25;0.98;;;17.10;99.90;;;;;;5010154;28;20067;-68
2023/07/31 08:15:52;;;;;;;2.45;1.08;;;17.10;99.90;;;;;;5010462;28;20517;-70
2023/07/31 08:18:18;;;;;;;2.45;1.25;;;17.20;99.90;;;;;;4993195;28;20544;-69
2023/07/31 08:20:44;;;;;;;3.33;1.00;;;17.30;99.90;;;;;;5010049;28;20057;-69
2023/07/31 08:23:10;;;;;;;3.25;1.13;;;17.20;99.90;;;;;;5010240;28;20397;-69
2023/07/31 08:25:36;;;;;;;2.90;1.10;;;17.20;99.90;;;;;;5010192;28;20077;-69
2023/07/31 08:28:03;;;;;;;1.33;0.80;;;17.30;99.90;;;;;;5009485;28;20050;-68
2023/07/31 08:30:29;;;;;;;2.38;1.13;;;17.40;99.90;;;;;;5010022;28;20101;-69
2023/07/31 08:32:54;;;;;;;2.90;0.88;;;17.30;99.90;;;;;;5010820;28;20046;-69
2023/07/31 08:35:20;;;;;;;2.35;0.80;;;17.40;99.90;;;;;;5010628;28;20037;-69
2023/07/31 08:37:46;;;;;;;2.03;0.85;;;17.40;99.90;;;;;;5010566;28;20054;-68
2023/07/31 08:40:11;;;;;;;1.60;0.70;;;17.40;99.90;;;;;;5010664;28;20045;-69
2023/07/31 08:42:47;;;;;;;1.65;0.70;;;17.40;99.90;;;;;;5010462;28;20062;-68
2023/07/31 08:45:17;;;;;;;1.42;0.82;;;17.50;99.90;;;;;;5009583;28;20046;-68
2023/07/31 08:47:46;;;;;;;3.50;0.90;;;17.50;99.90;;;;;;5010558;28;20041;-68
2023/07/31 08:50:17;;;;;;;1.65;0.70;;;17.40;99.90;;;;;;5010538;28;20096;-67
2023/07/31 08:52:43;;;;;;;1.67;0.95;;;17.50;99.90;;;;;;5010350;28;20121;-69
2023/07/31 08:55:09;;;;;;;2.38;1.00;;;17.50;99.90;;;;;;5009681;28;20073;-70
2023/07/31 08:57:38;;;;;;;4.47;0.85;;;17.50;99.90;;;;;;5009501;28;20061;-69
2023/07/31 09:00:08;;;;;;;2.22;1.17;;;17.50;99.90;;;;;;4988564;28;20072;-67
2023/07/31 09:03:03;;;;;;;2.35;1.13;;;17.50;99.90;;;;;;5003172;28;20057;-67
2023/07/31 09:05:30;;;;;;;1.50;0.73;;;17.50;99.90;;;;;;5010288;28;20186;-67
2023/07/31 09:07:57;;;;;;;1.67;0.98;;;17.50;99.90;;;;;;5009987;28;20068;-71
2023/07/31 09:10:24;;;;;;;2.00;1.05;;;17.50;99.90;;;;;;5010219;28;20384;-70
2023/07/31 09:12:51;;;;;;;1.70;0.90;;;17.50;99.90;;;;;;5010537;28;20104;-67
2023/07/31 09:15:17;;;;;;;1.63;1.00;;;17.50;99.90;;;;;;5014235;28;20038;-68
2023/07/31 09:17:43;;;;;;;3.97;0.90;;;17.60;99.90;;;;;;5013469;28;20115;-67
2023/07/31 09:20:21;;;;;;;1.67;0.80;;;17.60;99.90;;;;;;4996273;28;20061;-69
2023/07/31 09:22:49;;;;;;;1.83;0.80;;;17.70;99.90;;;;;;5012318;28;20516;-68
2023/07/31 09:25:21;;;;;;;1.60;0.50;;;17.60;99.90;;;;;;5012846;28;20539;-69
2023/07/31 09:27:57;;;;;;;0.85;0.47;;;17.70;99.90;;;;;;5013119;28;20488;-67
2023/07/31 09:30:23;;;;;;;0.80;0.60;;;17.70;99.90;;;;;;5013297;28;20041;-68
2023/07/31 09:32:50;;;;;;;1.35;0.70;;;17.80;99.90;;;;;;5013452;28;20037;-68
2023/07/31 09:35:29;;;;;;;0.60;0.40;;;17.80;99.90;;;;;;5013517;28;20132;-68
2023/07/31 09:38:09;;;;;;;0.93;0.32;;;17.80;99.90;;;;;;5013182;28;20114;-68
2023/07/31 09:40:40;;;;;;;0.70;0.40;;;17.80;99.90;;;;;;5008399;28;20050;-69
2023/07/31 09:43:11;;;;;;;0.98;0.40;;;17.90;99.90;;;;;;5006104;28;20174;-69
2023/07/31 09:45:39;;;;;;;3.03;0.35;;;17.90;99.90;;;;;;5005050;28;20052;-68
2023/07/31 09:48:12;;;;;;;0.47;0.30;;;18.00;99.90;;;;;;5006707;28;20056;-66
2023/07/31 09:50:39;;;;;;;1.97;0.37;;;17.90;99.90;;;;;;5011275;28;20124;-68
2023/07/31 09:53:06;;;;;;;1.13;0.30;;;18.00;99.90;;;;;;5012767;28;20296;-68
2023/07/31 09:55:33;;;;;;;2.83;0.30;;;18.00;99.90;;;;;;5012813;28;20401;-67
2023/07/31 09:57:59;;;;;;;0.68;0.30;;;18.00;99.90;;;;;;4990061;28;20054;-68
2023/07/31 10:00:26;;;;;;;0.30;0.30;;;17.90;99.90;;;;;;4994701;28;20060;-68
2023/07/31 10:02:54;;;;;;;0.32;0.30;;;18.10;99.90;;;;;;5009173;28;20053;-67
2023/07/31 10:05:21;;;;;;;0.25;0.20;;;18.20;99.90;;;;;;5005457;28;20042;-67
2023/07/31 10:07:57;;;;;;;0.32;0.20;;;18.10;99.90;;;;;;5005877;28;20051;-68
2023/07/31 10:10:25;;;;;;;0.52;0.20;;;18.20;99.90;;;;;;5006778;28;20076;-67
2023/07/31 10:12:52;;;;;;;0.80;0.28;;;18.20;99.90;;;;;;5005955;28;20042;-68
2023/07/31 10:15:18;;;;;;;0.20;0.13;;;18.20;99.90;;;;;;5004244;28;20050;-68
2023/07/31 10:17:46;;;;;;;0.30;0.20;;;18.20;99.90;;;;;;5009622;28;20042;-68
2023/07/31 10:20:12;;;;;;;0.50;0.25;;;18.20;99.90;;;;;;5012070;28;20077;-68
2023/07/31 10:22:38;;;;;;;2.42;0.30;;;18.20;99.90;;;;;;5012246;28;20048;-69
2023/07/31 10:25:07;;;;;;;0.30;0.10;;;18.40;99.90;;;;;;5011171;28;20041;-69
2023/07/31 10:27:35;;;;;;;0.10;0.10;;;18.30;99.90;;;;;;5011724;28;20038;-68
2023/07/31 10:30:04;;;;;;;0.10;0.10;;;18.30;99.90;;;;;;5011739;28;20042;-69
2023/07/31 10:32:30;;;;;;;0.98;0.30;;;18.40;99.90;;;;;;5011226;28;20046;-68
2023/07/31 10:34:57;;;;;;;0.88;0.15;;;18.40;99.90;;;;;;5011189;28;20052;-69
2023/07/31 10:37:40;;;;;;;2.00;0.22;;;18.50;99.90;;;;;;5012424;28;20042;-68
2023/07/31 10:40:06;;;;;;;0.10;0.10;;;18.70;99.90;;;;;;5012394;28;20050;-69
2023/07/31 10:42:34;;;;;;;0.30;0.10;;;18.80;99.90;;;;;;5012027;28;20050;-69
2023/07/31 10:45:09;;;;;;;1.10;0.20;;;18.90;99.90;;;;;;5011757;28;20390;-68
2023/07/31 10:47:45;;;;;;;0.40;0.20;;;19.10;99.90;;;;;;5011521;28;20038;-69
2023/07/31 10:50:23;;;;;;;0.70;0.13;;;19.20;99.90;;;;;;5008379;28;20057;-69
2023/07/31 10:52:50;;;;;;;6.28;1.05;;;19.10;99.90;;;;;;5005182;28;20086;-69
2023/07/31 10:55:27;;;;;;;1.17;0.20;;;19.20;99.90;;;;;;5008646;28;20056;-68
2023/07/31 10:58:06;;;;;;;0.20;0.20;;;19.10;99.90;;;;;;5009379;28;20042;-70
2023/07/31 11:00:32;;;;;;;0.68;0.20;;;19.10;99.90;;;;;;5008717;28;20405;-69
2023/07/31 11:02:59;;;;;;;2.08;0.40;;;19.10;99.90;;;;;;5009627;28;20125;-67
2023/07/31 11:05:48;;;;;;;0.88;0.30;;;19.10;99.90;;;;;;5006272;28;20049;-68
2023/07/31 11:08:19;;;;;;;1.58;0.63;;;19.10;99.90;;;;;;5011201;28;20049;-68
2023/07/31 11:10:46;;;;;;;1.20;0.50;;;19.30;99.90;;;;;;5011367;28;20492;-70
2023/07/31 11:13:12;;;;;;;0.93;0.40;;;19.30;99.90;;;;;;5011439;28;20396;-69
2023/07/31 11:15:38;;;;;;;1.70;0.30;;;19.40;99.90;;;;;;5011218;28;20077;-70
2023/07/31 11:18:05;;;;;;;0.57;0.20;;;19.50;99.90;;;;;;5010764;28;20081;-68
2023/07/31 11:20:32;;;;;;;0.65;0.30;;;19.60;99.90;;;;;;5010694;28;20045;-69
2023/07/31 11:23:02;;;;;;;1.60;0.40;;;19.70;99.90;;;;;;5010533;28;20477;-69
2023/07/31 11:25:32;;;;;;;0.98;0.20;;;19.80;99.90;;;;;;5010760;28;20117;-70
2023/07/31 11:28:05;;;;;;;1.40;0.40;;;19.90;99.90;;;;;;5008483;28;20053;-70
2023/07/31 11:30:31;;;;;;;1.70;0.45;;;19.80;99.90;;;;;;5011137;28;20092;-69
2023/07/31 11:32:57;;;;;;;2.50;0.40;;;19.90;99.90;;;;;;5010238;28;20478;-70
2023/07/31 11:35:23;;;;;;;0.85;0.35;;;19.90;99.90;;;;;;5010164;28;20038;-69
2023/07/31 11:37:48;;;;;;;1.15;0.40;;;19.90;99.90;;;;;;5009164;28;20104;-69
2023/07/31 11:40:15;;;;;;;1.70;0.47;;;20.10;99.90;;;;;;5010520;28;20034;-70
2023/07/31 11:42:41;;;;;;;0.77;0.43;;;20.40;99.90;;;;;;5010038;28;20050;-69
2023/07/31 11:45:10;;;;;;;1.85;0.43;;;20.40;99.90;;;;;;5009948;28;20100;-70
2023/07/31 11:47:37;;;;;;;1.30;0.50;;;20.30;99.90;;;;;;5010012;28;20104;-69
2023/07/31 11:50:05;;;;;;;2.28;0.60;;;20.10;99.90;;;;;;5008859;28;20045;-69
2023/07/31 11:52:35;;;;;;;3.55;0.63;;;20.00;99.90;;;;;;4999277;28;20586;-69
2023/07/31 11:55:01;;;;;;;2.63;0.68;;;19.70;99.90;;;;;;5009825;28;20104;-69
2023/07/31 11:57:28;;;;;;;4.10;0.70;;;19.60;99.90;;;;;;5009529;28;20104;-68
2023/07/31 11:59:55;;;;;;;4.13;0.85;;;19.40;99.90;;;;;;5009770;28;20099;-69
2023/07/31 12:02:21;;;;;;;3.28;1.48;;;19.30;99.90;;;;;;5009677;28;20128;-68
2023/07/31 12:04:48;;;;;;;3.13;0.60;;;19.40;99.90;;;;;;5009262;28;20121;-68
2023/07/31 12:07:13;;;;;;;3.03;0.73;;;19.50;99.90;;;;;;5009825;28;20333;-68
2023/07/31 12:09:59;;;;;;;3.85;0.75;;;19.40;99.90;;;;;;5009649;28;20425;-68
2023/07/31 12:12:25;;;;;;;2.90;0.85;;;19.40;99.90;;;;;;5009723;28;20041;-69
2023/07/31 12:14:51;;;;;;;3.85;0.90;;;19.40;99.90;;;;;;5009485;28;20481;-70
2023/07/31 12:17:20;;;;;;;5.10;1.05;;;19.50;99.90;;;;;;5009778;28;20042;-69
2023/07/31 12:19:46;;;;;;;4.63;1.30;;;19.50;99.90;;;;;;5009334;28;20034;-69
2023/07/31 12:22:16;;;;;;;3.97;1.25;;;19.20;99.90;;;;;;5009176;28;20057;-68
2023/07/31 12:24:45;;;;;;;2.75;0.90;;;19.10;99.90;;;;;;5008530;28;20037;-69
2023/07/31 12:27:15;;;;;;;4.57;0.82;;;19.30;99.90;;;;;;5010298;28;20045;-69
2023/07/31 12:29:44;;;;;;;6.38;1.17;;;19.20;99.90;;;;;;5009688;28;20632;-68
2023/07/31 12:32:24;;;;;;;5.40;1.10;;;19.10;99.90;;;;;;5009677;28;20057;-68
2023/07/31 12:34:50;;;;;;;4.93;1.67;;;19.10;99.90;;;;;;5009496;28;20038;-68
2023/07/31 12:37:16;;;;;;;8.35;1.50;;;19.10;99.90;;;;;;5009966;28;20606;-67
2023/07/31 12:39:42;;;;;;;9.32;1.65;;;19.20;99.90;;;;;;5009781;28;20552;-71
2023/07/31 12:42:08;;;;;;;8.65;1.88;;;19.20;99.90;;;;;;5001864;28;20145;-68
2023/07/31 12:44:33;;;;;;;9.00;1.50;;;19.30;99.90;;;;;;5010206;28;20045;-71
2023/07/31 12:46:59;;;;;;;6.53;2.08;;;19.20;99.90;;;;;;5009759;28;20053;-68